createdAt,value
2018-08-20T00:00:18.973Z,4.55
2018-08-20T00:02:47.843Z,5.05
2018-08-20T00:05:16.717Z,4.72
2018-08-20T00:07:45.569Z,4.65
2018-08-20T00:10:14.418Z,4.72
2018-08-20T00:12:43.265Z,5.00
2018-08-20T00:15:12.131Z,4.70
2018-08-20T00:17:40.968Z,4.95
2018-08-20T00:20:09.807Z,4.37
2018-08-20T00:22:38.650Z,4.87
2018-08-20T00:25:07.487Z,4.62
2018-08-20T00:27:36.332Z,4.65
2018-08-20T00:30:05.173Z,4.95
2018-08-20T00:32:34.022Z,4.30
2018-08-20T00:35:02.866Z,4.53
2018-08-20T00:37:32.444Z,4.75
2018-08-20T00:40:01.279Z,4.80
2018-08-20T00:42:30.132Z,4.78
2018-08-20T00:44:58.982Z,4.65
2018-08-20T00:47:27.832Z,4.60
2018-08-20T00:49:57.412Z,4.62
2018-08-20T00:52:26.258Z,4.72
2018-08-20T00:54:55.097Z,5.40
2018-08-20T00:57:23.954Z,4.35
2018-08-20T00:59:52.805Z,5.50
2018-08-20T01:02:21.656Z,5.10
2018-08-20T01:04:50.499Z,4.85
2018-08-20T01:07:19.347Z,4.57
2018-08-20T01:09:48.196Z,4.70
2018-08-20T01:12:17.050Z,4.60
2018-08-20T01:14:45.915Z,4.80
2018-08-20T01:17:15.506Z,4.53
2018-08-20T01:19:44.352Z,4.60
2018-08-20T01:22:13.200Z,5.03
2018-08-20T01:24:42.037Z,4.70
2018-08-20T01:27:10.867Z,4.87
2018-08-20T01:29:39.724Z,5.45
2018-08-20T01:32:08.567Z,5.65
2018-08-20T01:34:38.145Z,4.93
2018-08-20T01:37:06.986Z,5.03
2018-08-20T01:39:35.830Z,4.87
2018-08-20T01:42:04.666Z,4.65
2018-08-20T01:44:33.503Z,4.72
2018-08-20T01:47:02.351Z,4.78
2018-08-20T01:49:31.199Z,5.32
2018-08-20T01:52:00.778Z,5.10
2018-08-20T01:54:29.619Z,4.97
2018-08-20T01:56:58.462Z,5.10
2018-08-20T01:59:27.915Z,5.47
2018-08-20T02:01:56.753Z,5.30
2018-08-20T02:04:25.611Z,5.35
2018-08-20T02:06:54.457Z,5.50
2018-08-20T02:09:24.041Z,5.10
2018-08-20T02:11:52.888Z,5.60
2018-08-20T02:14:21.725Z,5.15
2018-08-20T02:16:50.576Z,5.37
2018-08-20T02:19:19.410Z,5.40
2018-08-20T02:21:48.261Z,4.68
2018-08-20T02:24:17.104Z,5.03
2018-08-20T02:26:46.694Z,4.82
2018-08-20T02:29:15.539Z,5.55
2018-08-20T02:31:44.377Z,4.75
2018-08-20T02:34:13.214Z,5.03
2018-08-20T02:36:42.069Z,5.60
2018-08-20T02:39:11.659Z,4.70
2018-08-20T02:41:40.520Z,5.30
2018-08-20T02:44:09.354Z,5.70
2018-08-20T02:46:38.935Z,5.57
2018-08-20T02:49:07.785Z,5.57
2018-08-20T02:51:36.626Z,5.80
2018-08-20T02:54:05.468Z,5.45
2018-08-20T02:56:34.306Z,5.07
2018-08-20T02:59:03.896Z,5.93
2018-08-20T03:01:32.760Z,6.00
2018-08-20T03:04:01.621Z,5.00
2018-08-20T03:06:30.492Z,5.97
2018-08-20T03:08:59.365Z,5.68
2018-08-20T03:11:28.236Z,5.32
2018-08-20T03:13:57.098Z,5.82
2018-08-20T03:16:26.002Z,5.68
2018-08-20T03:18:55.566Z,5.55
2018-08-20T03:21:24.409Z,5.30
2018-08-20T03:23:53.249Z,5.87
2018-08-20T03:26:22.084Z,5.28
2018-08-20T03:28:50.931Z,5.45
2018-08-20T03:31:19.767Z,5.78
2018-08-20T03:33:48.599Z,5.80
2018-08-20T03:36:17.459Z,5.80
2018-08-20T03:38:46.304Z,6.70
2018-08-20T03:41:15.158Z,6.12
2018-08-20T03:43:44.041Z,6.07
2018-08-20T03:46:12.883Z,6.18
2018-08-20T03:48:41.735Z,5.70
2018-08-20T03:51:10.582Z,7.00
2018-08-20T03:53:39.442Z,6.20
2018-08-20T03:56:08.268Z,5.90
2018-08-20T03:58:37.858Z,6.18
2018-08-20T04:01:06.701Z,6.35
2018-08-20T04:03:35.543Z,6.37
2018-08-20T04:06:05.146Z,5.90
2018-08-20T04:08:33.983Z,5.85
2018-08-20T04:11:02.825Z,6.20
2018-08-20T04:13:32.422Z,5.78
2018-08-20T04:16:01.275Z,6.43
2018-08-20T04:18:30.113Z,6.70
2018-08-20T04:20:58.961Z,6.43
2018-08-20T04:23:27.819Z,6.82
2018-08-20T04:25:56.676Z,6.30
2018-08-20T04:28:25.530Z,6.60
2018-08-20T04:30:54.372Z,6.85
2018-08-20T04:33:23.207Z,6.12
2018-08-20T04:35:52.045Z,6.10
2018-08-20T04:38:20.882Z,5.70
2018-08-20T04:40:49.732Z,5.75
2018-08-20T04:43:18.569Z,6.15
2018-08-20T04:45:47.410Z,5.68
2018-08-20T04:48:16.245Z,6.05
2018-08-20T04:50:45.179Z,5.85
2018-08-20T04:53:13.925Z,5.68
2018-08-20T04:55:42.765Z,6.20
2018-08-20T04:58:11.612Z,6.53
2018-08-20T05:00:40.455Z,6.37
2018-08-20T05:03:09.302Z,6.10
2018-08-20T05:05:38.145Z,6.15
2018-08-20T05:08:06.989Z,6.03
2018-08-20T05:10:36.568Z,6.10
2018-08-20T05:13:05.405Z,6.70
2018-08-20T05:15:34.252Z,5.93
2018-08-20T05:18:03.095Z,6.32
2018-08-20T05:20:31.934Z,6.22
2018-08-20T05:23:00.793Z,6.78
2018-08-20T05:25:29.621Z,5.85
2018-08-20T05:27:59.208Z,6.65
2018-08-20T05:30:28.042Z,7.03
2018-08-20T05:32:56.885Z,6.55
2018-08-20T05:35:25.726Z,5.80
2018-08-20T05:37:54.570Z,6.32
2018-08-20T05:40:23.419Z,6.65
2018-08-20T05:42:52.262Z,6.10
2018-08-20T05:45:21.102Z,5.95
2018-08-20T05:47:49.956Z,5.80
2018-08-20T05:50:19.545Z,6.03
2018-08-20T05:52:48.378Z,5.85
2018-08-20T05:55:17.266Z,6.32
2018-08-20T05:57:46.090Z,6.25
2018-08-20T06:00:14.924Z,6.82
2018-08-20T06:02:43.771Z,6.78
2018-08-20T06:05:12.614Z,5.90
2018-08-20T06:07:41.456Z,6.12
2018-08-20T06:10:10.298Z,6.05
2018-08-20T06:12:39.138Z,5.95
2018-08-20T06:15:08.011Z,5.95
2018-08-20T06:17:36.832Z,6.03
2018-08-20T06:20:05.691Z,5.82
2018-08-20T06:22:34.591Z,6.05
2018-08-20T06:25:04.215Z,6.28
2018-08-20T06:27:33.728Z,6.22
2018-08-20T06:30:02.560Z,6.50
2018-08-20T06:32:32.178Z,5.57
2018-08-20T06:35:01.037Z,6.20
2018-08-20T06:37:29.896Z,6.03
2018-08-20T06:39:58.737Z,5.65
2018-08-20T06:42:27.588Z,5.35
2018-08-20T06:44:56.431Z,5.97
2018-08-20T06:47:26.017Z,5.60
2018-08-20T06:49:54.879Z,6.15
2018-08-20T06:52:23.725Z,6.12
2018-08-20T06:54:52.569Z,6.15
2018-08-20T06:57:21.412Z,6.30
2018-08-20T06:59:51.016Z,5.35
2018-08-20T07:02:19.859Z,6.25
2018-08-20T07:04:48.696Z,6.28
2018-08-20T07:07:17.550Z,5.35
2018-08-20T07:09:46.397Z,5.20
2018-08-20T07:12:15.984Z,5.60
2018-08-20T07:14:44.823Z,5.65
2018-08-20T07:17:13.671Z,5.32
2018-08-20T07:19:42.529Z,5.32
2018-08-20T07:22:11.360Z,6.50
2018-08-20T07:24:40.205Z,5.22
2018-08-20T07:27:09.050Z,5.25
2018-08-20T07:32:19.316Z,5.67
2018-08-20T07:34:48.155Z,5.70
2018-08-20T07:37:16.989Z,5.47
2018-08-20T07:39:46.583Z,5.53
2018-08-20T07:42:15.457Z,5.68
2018-08-20T07:44:44.278Z,5.18
2018-08-20T07:47:13.115Z,5.95
2018-08-20T07:49:41.967Z,5.30
2018-08-20T07:52:10.802Z,5.25
2018-08-20T07:54:39.644Z,5.45
2018-08-20T07:57:08.498Z,5.75
2018-08-20T07:59:37.322Z,5.28
2018-08-20T08:02:06.911Z,5.12
2018-08-20T08:04:36.572Z,4.90
2018-08-20T08:07:05.353Z,5.57
2018-08-20T08:09:34.196Z,5.15
2018-08-20T08:12:03.077Z,5.00
2018-08-20T08:14:31.939Z,5.50
2018-08-20T08:17:00.773Z,5.37
2018-08-20T08:19:29.612Z,5.10
2018-08-20T08:21:58.447Z,4.90
2018-08-20T08:24:27.301Z,5.37
2018-08-20T08:26:56.129Z,5.40
2018-08-20T08:29:24.995Z,5.28
2018-08-20T08:31:53.831Z,5.30
2018-08-20T08:34:22.695Z,5.43
2018-08-20T08:36:51.526Z,5.80
2018-08-20T08:39:20.370Z,5.60
2018-08-20T08:41:49.217Z,5.65
2018-08-20T08:44:18.048Z,6.43
2018-08-20T08:46:46.896Z,6.65
2018-08-20T08:49:15.734Z,6.07
2018-08-20T08:51:44.586Z,6.62
2018-08-20T08:54:13.429Z,6.37
2018-08-20T08:56:42.304Z,6.78
2018-08-20T08:59:11.894Z,6.35
2018-08-20T09:01:40.741Z,6.70
2018-08-20T09:04:09.583Z,5.97
2018-08-20T09:06:38.454Z,6.00
2018-08-20T09:09:07.311Z,6.75
2018-08-20T09:11:36.346Z,6.18
2018-08-20T09:14:05.151Z,6.50
2018-08-20T09:16:34.743Z,6.47
2018-08-20T09:19:03.608Z,6.25
2018-08-20T09:21:32.441Z,6.15
2018-08-20T09:24:01.316Z,6.90
2018-08-20T09:26:30.151Z,6.62
2018-08-20T09:28:58.991Z,6.10
2018-08-20T09:31:27.853Z,6.65
2018-08-20T09:33:56.686Z,7.20
2018-08-20T09:36:25.549Z,6.93
2018-08-20T09:38:54.386Z,6.43
2018-08-20T09:41:23.229Z,6.50
2018-08-20T09:43:52.179Z,6.10
2018-08-20T09:46:20.944Z,5.90
2018-08-20T09:48:49.794Z,6.10
2018-08-20T09:51:18.645Z,5.80
2018-08-20T09:53:47.496Z,6.00
2018-08-20T09:56:16.350Z,5.50
2018-08-20T09:58:45.187Z,6.72
2018-08-20T10:01:14.029Z,6.10
2018-08-20T10:03:42.876Z,6.00
2018-08-20T10:06:11.727Z,5.65
2018-08-20T10:08:40.558Z,5.97
2018-08-20T10:11:10.156Z,5.47
2018-08-20T10:13:39.595Z,5.20
2018-08-20T10:16:08.434Z,6.15
2018-08-20T10:18:37.303Z,6.32
2018-08-20T10:21:06.138Z,5.82
2018-08-20T10:23:35.708Z,8.10
2018-08-20T10:26:04.542Z,6.87
2018-08-20T10:28:33.466Z,6.05
2018-08-20T10:31:02.306Z,5.62
2018-08-20T10:33:31.138Z,6.20
2018-08-20T10:35:59.968Z,5.93
2018-08-20T10:38:28.832Z,5.93
2018-08-20T10:40:57.672Z,5.43
2018-08-20T10:43:27.286Z,5.28
2018-08-20T10:48:33.040Z,5.80
2018-08-20T10:51:02.693Z,5.75
2018-08-20T10:53:31.473Z,5.40
2018-08-20T10:56:00.319Z,5.32
2018-08-20T10:58:29.180Z,5.70
2018-08-20T11:00:58.034Z,5.60
2018-08-20T11:03:26.886Z,4.87
2018-08-20T11:05:55.727Z,5.70
2018-08-20T11:08:24.567Z,5.28
2018-08-20T11:10:53.548Z,5.95
2018-08-20T11:13:22.312Z,6.12
2018-08-20T11:15:51.162Z,5.30
2018-08-20T11:18:20.781Z,5.25
2018-08-20T11:20:50.347Z,5.28
2018-08-20T11:23:19.188Z,5.70
2018-08-20T11:25:48.038Z,5.10
2018-08-20T11:28:16.878Z,4.60
2018-08-20T11:30:45.726Z,4.55
2018-08-20T11:33:15.314Z,4.82
2018-08-20T11:35:44.152Z,5.20
2018-08-20T11:38:12.987Z,4.93
2018-08-20T11:40:41.830Z,5.30
2018-08-20T11:43:10.681Z,5.20
2018-08-20T11:45:39.520Z,5.22
2018-08-20T11:48:08.363Z,5.18
2018-08-20T11:50:37.216Z,5.60
2018-08-20T11:53:06.054Z,5.15
2018-08-20T11:55:35.639Z,4.75
2018-08-20T11:58:04.482Z,5.05
2018-08-20T12:00:33.326Z,4.90
2018-08-20T12:03:02.909Z,4.37
2018-08-20T12:05:31.750Z,5.40
2018-08-20T12:08:00.580Z,4.95
2018-08-20T12:10:29.426Z,5.15
2018-08-20T12:12:58.266Z,5.15
2018-08-20T12:15:27.111Z,4.68
2018-08-20T12:17:55.946Z,4.57
2018-08-20T12:20:24.777Z,4.70
2018-08-20T12:22:53.624Z,5.60
2018-08-20T12:25:22.464Z,4.90
2018-08-20T12:27:51.313Z,4.72
2018-08-20T12:30:20.175Z,5.32
2018-08-20T12:32:49.023Z,4.30
2018-08-20T12:35:17.902Z,4.78
2018-08-20T12:37:46.738Z,5.15
2018-08-20T12:40:15.640Z,5.10
2018-08-20T12:42:44.435Z,4.50
2018-08-20T12:45:13.275Z,4.68
2018-08-20T12:47:42.860Z,4.70
2018-08-20T12:50:11.732Z,4.70
2018-08-20T12:52:40.557Z,5.12
2018-08-20T12:55:10.154Z,4.85
2018-08-20T12:57:39.014Z,4.03
2018-08-20T13:00:07.853Z,4.40
2018-08-20T13:02:36.685Z,4.30
2018-08-20T13:05:05.526Z,3.90
2018-08-20T13:07:34.385Z,4.18
2018-08-20T13:10:03.216Z,3.53
2018-08-20T13:12:32.068Z,4.37
2018-08-20T13:15:01.686Z,4.12
2018-08-20T13:17:30.524Z,4.00
2018-08-20T13:19:59.378Z,4.18
2018-08-20T13:22:28.227Z,3.80
2018-08-20T13:24:57.081Z,4.35
2018-08-20T13:27:25.960Z,3.65
2018-08-20T13:29:54.787Z,4.12
2018-08-20T13:32:23.642Z,4.43
2018-08-20T13:34:52.488Z,3.80
2018-08-20T13:37:21.387Z,3.75
2018-08-20T13:39:50.191Z,4.53
2018-08-20T13:42:19.050Z,3.85
2018-08-20T13:44:47.904Z,4.35
2018-08-20T13:47:16.732Z,4.20
2018-08-20T13:49:45.570Z,3.50
2018-08-20T13:52:14.403Z,3.95
2018-08-20T13:54:43.257Z,4.07
2018-08-20T13:57:12.086Z,4.53
2018-08-20T13:59:40.970Z,3.85
2018-08-20T14:02:09.777Z,3.70
2018-08-20T14:04:38.617Z,3.45
2018-08-20T14:07:07.452Z,3.40
2018-08-20T14:09:37.047Z,3.37
2018-08-20T14:12:05.888Z,3.33
2018-08-20T14:14:34.751Z,3.20
2018-08-20T14:17:04.331Z,3.08
2018-08-20T14:19:33.199Z,3.45
2018-08-20T14:22:02.053Z,3.53
2018-08-20T14:24:30.911Z,3.10
2018-08-20T14:27:00.035Z,3.65
2018-08-20T14:29:28.628Z,3.50
2018-08-20T14:31:57.495Z,3.25
2018-08-20T14:34:26.346Z,3.05
2018-08-20T14:36:55.213Z,3.70
2018-08-20T14:39:24.032Z,3.20
2018-08-20T14:41:52.884Z,3.10
2018-08-20T14:44:21.718Z,3.50
2018-08-20T14:46:50.563Z,4.00
2018-08-20T14:49:19.411Z,3.50
2018-08-20T14:51:49.038Z,3.58
2018-08-20T14:54:17.884Z,3.70
2018-08-20T14:56:46.724Z,3.40
2018-08-20T14:59:15.584Z,3.35
2018-08-20T15:01:44.440Z,3.60
2018-08-20T15:04:13.295Z,3.40
2018-08-20T15:06:42.143Z,3.35
2018-08-20T15:09:11.090Z,3.22
2018-08-20T15:11:39.839Z,3.28
2018-08-20T15:14:09.461Z,3.40
2018-08-20T15:16:38.306Z,3.50
2018-08-20T15:19:07.156Z,3.00
2018-08-20T15:21:36.003Z,2.80
2018-08-20T15:24:04.853Z,3.45
2018-08-20T15:26:33.688Z,3.33
2018-08-20T15:29:03.263Z,3.90
2018-08-20T15:31:32.133Z,3.67
2018-08-20T15:34:00.975Z,4.05
2018-08-20T15:36:29.814Z,3.42
2018-08-20T15:38:58.645Z,3.90
2018-08-20T15:41:28.248Z,3.67
2018-08-20T15:43:57.192Z,3.50
2018-08-20T15:46:25.944Z,3.73
2018-08-20T15:48:55.534Z,3.60
2018-08-20T15:51:24.390Z,3.72
2018-08-20T15:53:53.229Z,3.40
2018-08-20T15:56:22.817Z,3.90
2018-08-20T15:58:52.266Z,3.90
2018-08-20T16:01:21.121Z,3.83
2018-08-20T16:03:50.721Z,3.85
2018-08-20T16:06:19.855Z,3.85
2018-08-20T16:08:48.454Z,3.67
2018-08-20T16:11:17.292Z,3.70
2018-08-20T16:13:46.144Z,3.87
2018-08-20T16:16:14.994Z,3.90
2018-08-20T16:18:43.854Z,4.12
2018-08-20T16:21:12.741Z,4.07
2018-08-20T16:23:41.585Z,3.90
2018-08-20T16:26:10.476Z,3.95
2018-08-20T16:28:39.307Z,3.53
2018-08-20T16:31:08.150Z,4.30
2018-08-20T16:33:36.996Z,3.70
2018-08-20T16:36:05.837Z,3.83
2018-08-20T16:38:34.689Z,3.60
2018-08-20T16:41:04.294Z,4.00
2018-08-20T16:43:34.068Z,4.07
2018-08-20T16:46:02.890Z,3.37
2018-08-20T16:48:31.742Z,3.60
2018-08-20T16:51:00.607Z,3.73
2018-08-20T16:53:29.428Z,4.30
2018-08-20T16:55:58.269Z,3.92
2018-08-20T16:58:27.111Z,3.50
2018-08-20T17:00:55.958Z,3.50
2018-08-20T17:03:24.838Z,3.75
2018-08-20T17:05:53.693Z,3.65
2018-08-20T17:08:22.535Z,3.70
2018-08-20T17:10:51.379Z,3.20
2018-08-20T17:13:20.232Z,3.40
2018-08-20T17:15:49.090Z,3.30
2018-08-20T17:18:17.962Z,3.15
2018-08-20T17:20:47.567Z,3.12
2018-08-20T17:23:16.409Z,2.55
2018-08-20T17:25:45.261Z,2.72
2018-08-20T17:28:14.133Z,3.10
2018-08-20T17:30:43.727Z,2.70
2018-08-20T17:33:12.569Z,2.45
2018-08-20T17:35:41.414Z,2.55
2018-08-20T17:38:11.009Z,2.30
2018-08-20T17:40:39.861Z,2.15
2018-08-20T17:43:08.696Z,2.40
2018-08-20T17:45:37.749Z,3.05
2018-08-20T17:48:07.247Z,2.90
2018-08-20T17:50:36.063Z,2.87
2018-08-20T17:53:06.753Z,2.80
2018-08-20T17:55:35.594Z,2.70
2018-08-20T17:58:04.455Z,2.87
2018-08-20T18:00:33.291Z,2.70
2018-08-20T18:03:02.158Z,2.45
2018-08-20T18:05:30.992Z,2.80
2018-08-20T18:07:59.833Z,2.62
2018-08-20T18:10:28.998Z,2.50
2018-08-20T18:12:57.753Z,2.60
2018-08-20T18:15:26.602Z,2.45
2018-08-20T18:17:55.451Z,2.50
2018-08-20T18:20:24.305Z,2.50
2018-08-20T18:22:53.151Z,2.78
2018-08-20T18:25:21.996Z,2.15
2018-08-20T18:27:51.584Z,2.50
2018-08-20T18:30:20.489Z,2.97
2018-08-20T18:32:49.275Z,2.60
2018-08-20T18:35:18.135Z,2.90
2018-08-20T18:37:47.050Z,2.62
2018-08-20T18:40:15.966Z,2.70
2018-08-20T18:42:44.826Z,2.70
2018-08-20T18:45:14.285Z,2.50
2018-08-20T18:47:43.124Z,2.58
2018-08-20T18:50:11.999Z,2.92
2018-08-20T18:52:40.864Z,3.05
2018-08-20T18:55:09.706Z,2.78
2018-08-20T18:57:38.554Z,2.90
2018-08-20T19:00:07.434Z,2.95
2018-08-20T19:02:36.288Z,2.78
2018-08-20T19:05:05.144Z,2.80
2018-08-20T19:07:33.999Z,2.70
2018-08-20T19:10:02.852Z,2.95
2018-08-20T19:12:32.481Z,3.00
2018-08-20T19:15:01.348Z,3.30
2018-08-20T19:17:30.956Z,3.40
2018-08-20T19:19:59.814Z,3.20
2018-08-20T19:22:28.701Z,3.10
2018-08-20T19:24:57.500Z,3.20
2018-08-20T19:27:26.365Z,2.95
2018-08-20T19:29:55.209Z,3.08
2018-08-20T19:32:24.808Z,2.92
2018-08-20T19:34:54.428Z,3.10
2018-08-20T19:37:23.278Z,3.30
2018-08-20T19:39:52.119Z,3.30
2018-08-20T19:42:21.022Z,2.95
2018-08-20T19:44:49.838Z,3.25
2018-08-20T19:47:18.685Z,3.00
2018-08-20T19:49:47.537Z,3.00
2018-08-20T19:52:16.394Z,2.90
2018-08-20T19:54:45.225Z,3.10
2018-08-20T19:57:14.126Z,2.97
2018-08-20T19:59:42.933Z,3.05
2018-08-20T20:02:11.804Z,3.10
2018-08-20T20:04:40.679Z,3.37
2018-08-20T20:07:09.557Z,3.70
2018-08-20T20:09:38.408Z,3.70
2018-08-20T20:12:07.281Z,3.78
2018-08-20T20:14:36.130Z,3.40
2018-08-20T20:17:04.971Z,3.95
2018-08-20T20:19:33.819Z,3.70
2018-08-20T20:22:02.679Z,3.55
2018-08-20T20:24:31.555Z,3.40
2018-08-20T20:27:00.412Z,3.28
2018-08-20T20:29:29.295Z,3.37
2018-08-20T20:31:58.891Z,3.45
2018-08-20T20:34:27.731Z,3.28
2018-08-20T20:36:56.582Z,2.87
2018-08-20T20:39:25.457Z,3.08
2018-08-20T20:41:54.306Z,2.97
2018-08-20T20:44:23.902Z,3.08
2018-08-20T20:46:53.508Z,3.40
2018-08-20T20:49:22.383Z,3.47
2018-08-20T20:51:51.211Z,2.90
2018-08-20T20:54:20.822Z,3.20
2018-08-20T20:56:50.403Z,2.92
2018-08-20T20:59:19.256Z,3.15
2018-08-20T21:01:48.129Z,3.12
2018-08-20T21:04:17.698Z,2.72
2018-08-20T21:06:46.598Z,3.40
2018-08-20T21:09:15.449Z,3.45
2018-08-20T21:11:44.291Z,3.28
2018-08-20T21:14:13.252Z,3.00
2018-08-20T21:16:42.633Z,3.08
2018-08-20T21:19:11.505Z,3.25
2018-08-20T21:21:40.343Z,3.12
2018-08-20T21:24:09.210Z,3.00
2018-08-20T21:26:38.050Z,3.00
2018-08-20T21:29:06.911Z,2.85
2018-08-20T21:31:35.754Z,3.00
2018-08-20T21:34:04.616Z,3.30
2018-08-20T21:36:33.460Z,3.20
2018-08-20T21:39:02.335Z,3.07
2018-08-20T21:41:31.195Z,3.50
2018-08-20T21:44:00.062Z,2.92
2018-08-20T21:46:29.662Z,3.10
2018-08-20T21:48:59.266Z,3.00
2018-08-20T21:51:28.110Z,3.03
2018-08-20T21:53:56.961Z,3.15
2018-08-20T21:56:25.816Z,3.10
2018-08-20T21:58:54.665Z,2.97
2018-08-20T22:01:23.590Z,3.30
2018-08-20T22:03:52.366Z,3.22
2018-08-20T22:06:21.210Z,3.20
2018-08-20T22:08:50.052Z,3.47
2018-08-20T22:11:18.895Z,3.22
2018-08-20T22:13:47.751Z,3.30
2018-08-20T22:16:16.602Z,3.50
2018-08-20T22:18:45.441Z,3.25
2018-08-20T22:21:14.289Z,3.30
2018-08-20T22:23:43.130Z,3.80
2018-08-20T22:26:11.978Z,3.55
2018-08-20T22:28:40.820Z,3.75
2018-08-20T22:31:10.407Z,3.78
2018-08-20T22:33:39.269Z,3.40
2018-08-20T22:36:08.105Z,3.67
2018-08-20T22:38:36.945Z,3.75
2018-08-20T22:41:05.792Z,3.67
2018-08-20T22:43:34.650Z,3.87
2018-08-20T22:46:04.235Z,3.83
2018-08-20T22:48:33.069Z,3.70
2018-08-20T22:51:02.655Z,4.10
2018-08-20T22:53:31.498Z,3.67
2018-08-20T22:56:05.281Z,4.45
2018-08-20T22:58:34.123Z,4.10
2018-08-20T23:01:02.959Z,4.75
2018-08-20T23:03:31.797Z,4.45
2018-08-20T23:06:00.653Z,4.30
2018-08-20T23:08:29.491Z,4.70
2018-08-20T23:10:58.335Z,4.72
2018-08-20T23:13:27.177Z,4.82
2018-08-20T23:15:56.768Z,4.45
2018-08-20T23:18:26.360Z,4.32
2018-08-20T23:20:55.201Z,4.10
2018-08-20T23:23:24.060Z,4.32
2018-08-20T23:25:52.902Z,4.25
2018-08-20T23:28:21.737Z,3.90
2018-08-20T23:30:50.597Z,3.70
2018-08-20T23:33:19.432Z,3.90
2018-08-20T23:35:48.287Z,3.72
2018-08-20T23:38:17.129Z,4.30
2018-08-20T23:40:46.708Z,3.70
2018-08-20T23:43:15.564Z,3.95
2018-08-20T23:45:44.411Z,3.80
2018-08-20T23:48:14.001Z,3.70
2018-08-20T23:50:42.865Z,3.47
2018-08-20T23:53:11.673Z,3.47
2018-08-20T23:55:41.106Z,4.03
2018-08-20T23:58:09.956Z,3.83
